sensor_id;sensor_type;location;lat;lon;timestamp;P1;durP1;ratioP1;P2;durP2;ratioP2
37303;SDS011;23188;51.188;16.374;2024-03-08T00:00:16;42.30;;;27.60;;
37303;SDS011;23188;51.188;16.374;2024-03-08T00:04:42;42.40;;;27.80;;
37303;SDS011;23188;51.188;16.374;2024-03-08T00:08:46;43.40;;;28.10;;
37303;SDS011;23188;51.188;16.374;2024-03-08T00:12:48;37.80;;;25.20;;
37303;SDS011;23188;51.188;16.374;2024-03-08T00:16:52;40.20;;;26.60;;
37303;SDS011;23188;51.188;16.374;2024-03-08T00:20:55;36.10;;;23.40;;
37303;SDS011;23188;51.188;16.374;2024-03-08T00:24:57;44.00;;;28.00;;
37303;SDS011;23188;51.188;16.374;2024-03-08T00:28:59;41.40;;;26.70;;
37303;SDS011;23188;51.188;16.374;2024-03-08T00:33:01;57.60;;;31.70;;
37303;SDS011;23188;51.188;16.374;2024-03-08T00:37:04;55.50;;;30.90;;
37303;SDS011;23188;51.188;16.374;2024-03-08T00:41:06;50.00;;;30.70;;
37303;SDS011;23188;51.188;16.374;2024-03-08T00:45:09;55.90;;;30.40;;
37303;SDS011;23188;51.188;16.374;2024-03-08T00:49:13;49.70;;;31.40;;
37303;SDS011;23188;51.188;16.374;2024-03-08T00:53:15;59.00;;;32.90;;
37303;SDS011;23188;51.188;16.374;2024-03-08T00:57:17;65.40;;;35.10;;
37303;SDS011;23188;51.188;16.374;2024-03-08T01:01:20;48.60;;;32.70;;
37303;SDS011;23188;51.188;16.374;2024-03-08T01:05:22;52.90;;;29.60;;
37303;SDS011;23188;51.188;16.374;2024-03-08T01:09:26;47.40;;;30.80;;
37303;SDS011;23188;51.188;16.374;2024-03-08T01:13:28;48.50;;;29.40;;
37303;SDS011;23188;51.188;16.374;2024-03-08T01:17:30;59.90;;;35.20;;
37303;SDS011;23188;51.188;16.374;2024-03-08T01:21:33;57.70;;;31.10;;
37303;SDS011;23188;51.188;16.374;2024-03-08T01:25:35;65.60;;;37.50;;
37303;SDS011;23188;51.188;16.374;2024-03-08T01:29:38;50.40;;;30.90;;
37303;SDS011;23188;51.188;16.374;2024-03-08T01:33:40;48.90;;;31.80;;
37303;SDS011;23188;51.188;16.374;2024-03-08T01:37:42;47.80;;;30.60;;
37303;SDS011;23188;51.188;16.374;2024-03-08T01:41:44;52.40;;;31.70;;
37303;SDS011;23188;51.188;16.374;2024-03-08T01:45:46;46.60;;;31.00;;
37303;SDS011;23188;51.188;16.374;2024-03-08T01:49:51;46.60;;;29.90;;
37303;SDS011;23188;51.188;16.374;2024-03-08T01:53:54;55.00;;;30.70;;
37303;SDS011;23188;51.188;16.374;2024-03-08T01:57:59;61.70;;;32.70;;
37303;SDS011;23188;51.188;16.374;2024-03-08T02:02:01;55.90;;;33.40;;
37303;SDS011;23188;51.188;16.374;2024-03-08T02:06:04;50.60;;;32.40;;
37303;SDS011;23188;51.188;16.374;2024-03-08T02:10:10;46.20;;;31.50;;
37303;SDS011;23188;51.188;16.374;2024-03-08T02:14:14;52.00;;;35.00;;
37303;SDS011;23188;51.188;16.374;2024-03-08T02:18:15;54.20;;;32.30;;
37303;SDS011;23188;51.188;16.374;2024-03-08T02:22:18;59.10;;;35.50;;
37303;SDS011;23188;51.188;16.374;2024-03-08T02:26:21;60.20;;;36.20;;
37303;SDS011;23188;51.188;16.374;2024-03-08T02:30:24;58.80;;;36.40;;
37303;SDS011;23188;51.188;16.374;2024-03-08T02:34:27;51.60;;;31.50;;
37303;SDS011;23188;51.188;16.374;2024-03-08T02:38:29;53.60;;;32.90;;
37303;SDS011;23188;51.188;16.374;2024-03-08T02:42:31;54.90;;;34.10;;
37303;SDS011;23188;51.188;16.374;2024-03-08T02:46:34;63.40;;;36.10;;
37303;SDS011;23188;51.188;16.374;2024-03-08T02:50:37;49.20;;;32.80;;
37303;SDS011;23188;51.188;16.374;2024-03-08T02:54:42;56.20;;;36.10;;
37303;SDS011;23188;51.188;16.374;2024-03-08T02:58:45;61.90;;;35.70;;
37303;SDS011;23188;51.188;16.374;2024-03-08T03:02:50;52.20;;;37.80;;
37303;SDS011;23188;51.188;16.374;2024-03-08T03:06:55;70.00;;;39.20;;
37303;SDS011;23188;51.188;16.374;2024-03-08T03:10:57;56.10;;;33.20;;
37303;SDS011;23188;51.188;16.374;2024-03-08T03:14:59;57.30;;;34.20;;
37303;SDS011;23188;51.188;16.374;2024-03-08T03:19:01;59.60;;;37.10;;
37303;SDS011;23188;51.188;16.374;2024-03-08T03:23:06;58.50;;;35.80;;
37303;SDS011;23188;51.188;16.374;2024-03-08T03:27:10;63.40;;;41.80;;
37303;SDS011;23188;51.188;16.374;2024-03-08T03:31:13;54.80;;;33.90;;
37303;SDS011;23188;51.188;16.374;2024-03-08T03:35:17;56.20;;;33.40;;
37303;SDS011;23188;51.188;16.374;2024-03-08T03:39:20;57.10;;;35.70;;
37303;SDS011;23188;51.188;16.374;2024-03-08T03:43:24;66.40;;;40.60;;
37303;SDS011;23188;51.188;16.374;2024-03-08T03:47:27;55.00;;;36.50;;
37303;SDS011;23188;51.188;16.374;2024-03-08T03:51:29;60.70;;;36.30;;
37303;SDS011;23188;51.188;16.374;2024-03-08T03:55:31;58.70;;;35.30;;
37303;SDS011;23188;51.188;16.374;2024-03-08T04:03:40;52.60;;;34.30;;
37303;SDS011;23188;51.188;16.374;2024-03-08T04:07:45;65.40;;;36.00;;
37303;SDS011;23188;51.188;16.374;2024-03-08T04:11:46;56.90;;;34.40;;
37303;SDS011;23188;51.188;16.374;2024-03-08T04:15:48;55.90;;;34.20;;
37303;SDS011;23188;51.188;16.374;2024-03-08T04:19:51;53.70;;;35.00;;
37303;SDS011;23188;51.188;16.374;2024-03-08T04:23:54;52.30;;;35.00;;
37303;SDS011;23188;51.188;16.374;2024-03-08T04:27:56;79.60;;;40.40;;
37303;SDS011;23188;51.188;16.374;2024-03-08T04:31:58;54.30;;;33.10;;
37303;SDS011;23188;51.188;16.374;2024-03-08T04:36:01;66.80;;;38.10;;
37303;SDS011;23188;51.188;16.374;2024-03-08T04:40:06;51.80;;;31.10;;
37303;SDS011;23188;51.188;16.374;2024-03-08T04:44:12;53.40;;;34.70;;
37303;SDS011;23188;51.188;16.374;2024-03-08T04:48:14;43.60;;;31.30;;
37303;SDS011;23188;51.188;16.374;2024-03-08T04:52:17;50.70;;;32.20;;
37303;SDS011;23188;51.188;16.374;2024-03-08T04:56:19;48.10;;;30.50;;
37303;SDS011;23188;51.188;16.374;2024-03-08T05:00:21;53.00;;;38.10;;
37303;SDS011;23188;51.188;16.374;2024-03-08T05:04:23;56.30;;;34.90;;
37303;SDS011;23188;51.188;16.374;2024-03-08T05:08:25;62.40;;;39.20;;
37303;SDS011;23188;51.188;16.374;2024-03-08T05:12:27;67.90;;;43.70;;
37303;SDS011;23188;51.188;16.374;2024-03-08T05:16:29;72.60;;;44.60;;
37303;SDS011;23188;51.188;16.374;2024-03-08T05:20:31;63.00;;;39.40;;
37303;SDS011;23188;51.188;16.374;2024-03-08T05:24:34;65.30;;;37.90;;
37303;SDS011;23188;51.188;16.374;2024-03-08T05:28:35;59.30;;;37.00;;
37303;SDS011;23188;51.188;16.374;2024-03-08T05:32:37;61.40;;;36.90;;
37303;SDS011;23188;51.188;16.374;2024-03-08T05:36:40;54.80;;;35.90;;
37303;SDS011;23188;51.188;16.374;2024-03-08T05:40:45;62.20;;;35.70;;
37303;SDS011;23188;51.188;16.374;2024-03-08T05:44:47;54.70;;;32.50;;
37303;SDS011;23188;51.188;16.374;2024-03-08T05:48:49;53.80;;;34.30;;
37303;SDS011;23188;51.188;16.374;2024-03-08T05:52:51;61.50;;;33.80;;
37303;SDS011;23188;51.188;16.374;2024-03-08T05:56:53;48.60;;;33.80;;
37303;SDS011;23188;51.188;16.374;2024-03-08T06:00:55;48.50;;;31.00;;
37303;SDS011;23188;51.188;16.374;2024-03-08T06:04:57;47.50;;;32.80;;
37303;SDS011;23188;51.188;16.374;2024-03-08T06:08:59;57.60;;;36.30;;
37303;SDS011;23188;51.188;16.374;2024-03-08T06:13:01;51.40;;;31.60;;
37303;SDS011;23188;51.188;16.374;2024-03-08T06:17:03;60.00;;;40.40;;
37303;SDS011;23188;51.188;16.374;2024-03-08T06:21:09;59.10;;;37.90;;
37303;SDS011;23188;51.188;16.374;2024-03-08T06:25:12;67.20;;;40.70;;
37303;SDS011;23188;51.188;16.374;2024-03-08T06:29:18;66.90;;;41.50;;
37303;SDS011;23188;51.188;16.374;2024-03-08T06:33:20;61.90;;;42.70;;
37303;SDS011;23188;51.188;16.374;2024-03-08T06:37:22;73.50;;;43.50;;
37303;SDS011;23188;51.188;16.374;2024-03-08T06:41:25;75.60;;;43.60;;
37303;SDS011;23188;51.188;16.374;2024-03-08T06:45:27;68.40;;;40.10;;
37303;SDS011;23188;51.188;16.374;2024-03-08T06:49:30;66.00;;;41.70;;
37303;SDS011;23188;51.188;16.374;2024-03-08T06:53:33;64.40;;;41.90;;
37303;SDS011;23188;51.188;16.374;2024-03-08T06:57:36;63.80;;;44.40;;
37303;SDS011;23188;51.188;16.374;2024-03-08T07:01:38;66.10;;;41.30;;
37303;SDS011;23188;51.188;16.374;2024-03-08T07:05:40;68.10;;;42.40;;
37303;SDS011;23188;51.188;16.374;2024-03-08T07:09:44;83.80;;;58.70;;
37303;SDS011;23188;51.188;16.374;2024-03-08T07:13:47;56.30;;;39.30;;
37303;SDS011;23188;51.188;16.374;2024-03-08T07:17:49;65.90;;;40.00;;
37303;SDS011;23188;51.188;16.374;2024-03-08T07:21:54;70.70;;;45.60;;
37303;SDS011;23188;51.188;16.374;2024-03-08T07:25:56;65.10;;;43.10;;
37303;SDS011;23188;51.188;16.374;2024-03-08T07:29:59;67.80;;;41.70;;
37303;SDS011;23188;51.188;16.374;2024-03-08T07:34:05;62.40;;;40.50;;
37303;SDS011;23188;51.188;16.374;2024-03-08T07:38:09;61.80;;;41.30;;
37303;SDS011;23188;51.188;16.374;2024-03-08T07:42:11;57.80;;;39.60;;
37303;SDS011;23188;51.188;16.374;2024-03-08T07:46:13;71.50;;;41.40;;
37303;SDS011;23188;51.188;16.374;2024-03-08T07:50:15;71.60;;;41.00;;
37303;SDS011;23188;51.188;16.374;2024-03-08T07:54:17;66.80;;;43.80;;
37303;SDS011;23188;51.188;16.374;2024-03-08T07:58:19;74.50;;;45.30;;
37303;SDS011;23188;51.188;16.374;2024-03-08T08:02:22;78.50;;;40.10;;
37303;SDS011;23188;51.188;16.374;2024-03-08T08:06:24;63.20;;;39.90;;
37303;SDS011;23188;51.188;16.374;2024-03-08T08:10:27;66.70;;;41.20;;
37303;SDS011;23188;51.188;16.374;2024-03-08T08:14:30;58.90;;;40.80;;
37303;SDS011;23188;51.188;16.374;2024-03-08T08:18:32;63.10;;;38.40;;
37303;SDS011;23188;51.188;16.374;2024-03-08T08:22:34;60.70;;;43.50;;
37303;SDS011;23188;51.188;16.374;2024-03-08T08:26:36;63.30;;;45.50;;
37303;SDS011;23188;51.188;16.374;2024-03-08T08:30:41;82.10;;;47.00;;
37303;SDS011;23188;51.188;16.374;2024-03-08T08:34:44;69.90;;;46.50;;
37303;SDS011;23188;51.188;16.374;2024-03-08T08:38:45;77.10;;;46.40;;
37303;SDS011;23188;51.188;16.374;2024-03-08T08:42:48;66.90;;;42.70;;
37303;SDS011;23188;51.188;16.374;2024-03-08T08:46:51;68.90;;;45.40;;
37303;SDS011;23188;51.188;16.374;2024-03-08T08:55:00;67.70;;;45.00;;
37303;SDS011;23188;51.188;16.374;2024-03-08T08:59:05;70.40;;;46.70;;
37303;SDS011;23188;51.188;16.374;2024-03-08T09:03:06;63.70;;;40.20;;
37303;SDS011;23188;51.188;16.374;2024-03-08T09:07:09;79.20;;;47.50;;
37303;SDS011;23188;51.188;16.374;2024-03-08T09:11:10;76.00;;;44.10;;
37303;SDS011;23188;51.188;16.374;2024-03-08T09:15:13;55.00;;;35.20;;
37303;SDS011;23188;51.188;16.374;2024-03-08T09:19:15;66.50;;;43.70;;
37303;SDS011;23188;51.188;16.374;2024-03-08T09:23:22;66.20;;;43.80;;
37303;SDS011;23188;51.188;16.374;2024-03-08T09:27:23;69.60;;;44.20;;
37303;SDS011;23188;51.188;16.374;2024-03-08T09:31:25;66.90;;;43.90;;
37303;SDS011;23188;51.188;16.374;2024-03-08T09:35:27;46.20;;;32.20;;
37303;SDS011;23188;51.188;16.374;2024-03-08T09:39:31;70.50;;;43.90;;
37303;SDS011;23188;51.188;16.374;2024-03-08T09:43:34;68.40;;;44.20;;
37303;SDS011;23188;51.188;16.374;2024-03-08T09:47:40;69.40;;;44.60;;
37303;SDS011;23188;51.188;16.374;2024-03-08T09:51:44;67.20;;;45.80;;
37303;SDS011;23188;51.188;16.374;2024-03-08T09:55:47;71.80;;;47.50;;
37303;SDS011;23188;51.188;16.374;2024-03-08T09:59:51;56.00;;;38.90;;
37303;SDS011;23188;51.188;16.374;2024-03-08T10:03:52;72.10;;;45.00;;
37303;SDS011;23188;51.188;16.374;2024-03-08T10:07:56;62.20;;;45.30;;
37303;SDS011;23188;51.188;16.374;2024-03-08T10:11:58;63.10;;;40.80;;
37303;SDS011;23188;51.188;16.374;2024-03-08T10:16:01;62.50;;;44.10;;
37303;SDS011;23188;51.188;16.374;2024-03-08T10:20:03;62.50;;;41.20;;
37303;SDS011;23188;51.188;16.374;2024-03-08T10:24:06;64.10;;;44.70;;
37303;SDS011;23188;51.188;16.374;2024-03-08T10:28:12;60.90;;;44.60;;
37303;SDS011;23188;51.188;16.374;2024-03-08T10:32:14;57.50;;;40.70;;
37303;SDS011;23188;51.188;16.374;2024-03-08T10:36:16;63.60;;;45.40;;
37303;SDS011;23188;51.188;16.374;2024-03-08T10:40:20;57.90;;;42.30;;
37303;SDS011;23188;51.188;16.374;2024-03-08T10:48:32;64.60;;;40.80;;
37303;SDS011;23188;51.188;16.374;2024-03-08T10:52:45;50.70;;;31.40;;
37303;SDS011;23188;51.188;16.374;2024-03-08T10:56:50;60.80;;;43.70;;
37303;SDS011;23188;51.188;16.374;2024-03-08T11:00:53;59.80;;;42.60;;
37303;SDS011;23188;51.188;16.374;2024-03-08T11:04:58;56.60;;;39.30;;
37303;SDS011;23188;51.188;16.374;2024-03-08T11:09:01;68.10;;;45.90;;
37303;SDS011;23188;51.188;16.374;2024-03-08T11:13:03;68.50;;;44.30;;
37303;SDS011;23188;51.188;16.374;2024-03-08T11:17:05;52.90;;;34.00;;
37303;SDS011;23188;51.188;16.374;2024-03-08T11:21:08;63.60;;;41.80;;
37303;SDS011;23188;51.188;16.374;2024-03-08T11:25:33;59.30;;;39.50;;
37303;SDS011;23188;51.188;16.374;2024-03-08T11:29:37;66.40;;;41.20;;
37303;SDS011;23188;51.188;16.374;2024-03-08T11:33:41;49.00;;;29.60;;
37303;SDS011;23188;51.188;16.374;2024-03-08T11:37:46;56.60;;;36.10;;
37303;SDS011;23188;51.188;16.374;2024-03-08T11:41:49;64.70;;;38.60;;
37303;SDS011;23188;51.188;16.374;2024-03-08T11:45:51;55.00;;;36.50;;
37303;SDS011;23188;51.188;16.374;2024-03-08T11:50:10;51.10;;;34.90;;
37303;SDS011;23188;51.188;16.374;2024-03-08T11:54:13;50.60;;;35.20;;
37303;SDS011;23188;51.188;16.374;2024-03-08T11:58:14;44.60;;;32.60;;
37303;SDS011;23188;51.188;16.374;2024-03-08T12:02:17;48.80;;;32.10;;
37303;SDS011;23188;51.188;16.374;2024-03-08T12:06:20;43.80;;;31.90;;
37303;SDS011;23188;51.188;16.374;2024-03-08T12:10:22;46.10;;;34.80;;
37303;SDS011;23188;51.188;16.374;2024-03-08T12:14:25;51.00;;;35.80;;
37303;SDS011;23188;51.188;16.374;2024-03-08T12:18:27;45.00;;;31.00;;
37303;SDS011;23188;51.188;16.374;2024-03-08T12:22:31;44.70;;;30.40;;
37303;SDS011;23188;51.188;16.374;2024-03-08T12:26:34;51.20;;;35.40;;
37303;SDS011;23188;51.188;16.374;2024-03-08T12:30:48;51.30;;;31.40;;
37303;SDS011;23188;51.188;16.374;2024-03-08T12:34:52;50.40;;;31.90;;
37303;SDS011;23188;51.188;16.374;2024-03-08T12:38:55;40.00;;;27.70;;
37303;SDS011;23188;51.188;16.374;2024-03-08T12:42:58;53.90;;;33.60;;
37303;SDS011;23188;51.188;16.374;2024-03-08T12:47:00;46.40;;;32.80;;
37303;SDS011;23188;51.188;16.374;2024-03-08T12:51:03;49.90;;;27.20;;
37303;SDS011;23188;51.188;16.374;2024-03-08T12:55:05;58.00;;;30.90;;
37303;SDS011;23188;51.188;16.374;2024-03-08T12:59:08;36.40;;;27.80;;
37303;SDS011;23188;51.188;16.374;2024-03-08T13:03:11;38.90;;;28.30;;
37303;SDS011;23188;51.188;16.374;2024-03-08T13:07:13;38.20;;;28.40;;
37303;SDS011;23188;51.188;16.374;2024-03-08T13:11:18;38.00;;;25.80;;
37303;SDS011;23188;51.188;16.374;2024-03-08T13:15:20;41.70;;;28.10;;
37303;SDS011;23188;51.188;16.374;2024-03-08T13:19:22;42.30;;;28.30;;
37303;SDS011;23188;51.188;16.374;2024-03-08T13:23:25;44.60;;;29.60;;
37303;SDS011;23188;51.188;16.374;2024-03-08T13:27:27;41.80;;;27.60;;
37303;SDS011;23188;51.188;16.374;2024-03-08T13:31:29;43.40;;;30.30;;
37303;SDS011;23188;51.188;16.374;2024-03-08T13:35:31;37.00;;;28.40;;
37303;SDS011;23188;51.188;16.374;2024-03-08T13:39:33;39.40;;;28.10;;
37303;SDS011;23188;51.188;16.374;2024-03-08T13:43:41;41.40;;;25.70;;
37303;SDS011;23188;51.188;16.374;2024-03-08T13:47:43;42.40;;;26.60;;
37303;SDS011;23188;51.188;16.374;2024-03-08T13:51:48;45.90;;;29.80;;
37303;SDS011;23188;51.188;16.374;2024-03-08T13:55:51;39.70;;;28.30;;
37303;SDS011;23188;51.188;16.374;2024-03-08T13:59:53;48.20;;;30.30;;
37303;SDS011;23188;51.188;16.374;2024-03-08T14:03:55;36.30;;;25.60;;
37303;SDS011;23188;51.188;16.374;2024-03-08T14:07:57;33.90;;;24.60;;
37303;SDS011;23188;51.188;16.374;2024-03-08T14:11:59;45.40;;;28.40;;
37303;SDS011;23188;51.188;16.374;2024-03-08T14:16:01;32.40;;;24.60;;
37303;SDS011;23188;51.188;16.374;2024-03-08T14:20:03;56.40;;;35.60;;
37303;SDS011;23188;51.188;16.374;2024-03-08T14:24:05;55.40;;;31.80;;
37303;SDS011;23188;51.188;16.374;2024-03-08T14:28:08;38.40;;;24.40;;
37303;SDS011;23188;51.188;16.374;2024-03-08T14:32:09;43.80;;;24.60;;
37303;SDS011;23188;51.188;16.374;2024-03-08T14:36:11;40.10;;;27.10;;
37303;SDS011;23188;51.188;16.374;2024-03-08T14:40:14;36.60;;;23.70;;
37303;SDS011;23188;51.188;16.374;2024-03-08T14:44:17;35.80;;;24.60;;
37303;SDS011;23188;51.188;16.374;2024-03-08T14:48:20;33.20;;;24.50;;
37303;SDS011;23188;51.188;16.374;2024-03-08T14:52:22;35.00;;;23.60;;
37303;SDS011;23188;51.188;16.374;2024-03-08T14:56:31;38.00;;;25.20;;
37303;SDS011;23188;51.188;16.374;2024-03-08T15:00:33;33.40;;;22.90;;
37303;SDS011;23188;51.188;16.374;2024-03-08T15:04:36;38.60;;;24.60;;
37303;SDS011;23188;51.188;16.374;2024-03-08T15:08:38;33.40;;;23.30;;
37303;SDS011;23188;51.188;16.374;2024-03-08T15:12:44;45.70;;;28.90;;
37303;SDS011;23188;51.188;16.374;2024-03-08T15:16:51;40.20;;;26.60;;
37303;SDS011;23188;51.188;16.374;2024-03-08T15:20:53;37.80;;;26.50;;
37303;SDS011;23188;51.188;16.374;2024-03-08T15:24:56;42.20;;;28.70;;
37303;SDS011;23188;51.188;16.374;2024-03-08T15:29:00;52.60;;;32.30;;
37303;SDS011;23188;51.188;16.374;2024-03-08T15:33:02;56.30;;;33.60;;
37303;SDS011;23188;51.188;16.374;2024-03-08T15:37:04;54.20;;;35.10;;
37303;SDS011;23188;51.188;16.374;2024-03-08T15:41:06;40.50;;;29.30;;
37303;SDS011;23188;51.188;16.374;2024-03-08T15:45:11;45.20;;;29.30;;
37303;SDS011;23188;51.188;16.374;2024-03-08T15:49:14;40.70;;;26.20;;
37303;SDS011;23188;51.188;16.374;2024-03-08T15:53:15;32.10;;;22.50;;
37303;SDS011;23188;51.188;16.374;2024-03-08T15:57:17;33.80;;;22.30;;
37303;SDS011;23188;51.188;16.374;2024-03-08T16:01:21;37.00;;;24.50;;
37303;SDS011;23188;51.188;16.374;2024-03-08T16:05:23;32.70;;;23.80;;
37303;SDS011;23188;51.188;16.374;2024-03-08T16:09:25;33.10;;;24.80;;
37303;SDS011;23188;51.188;16.374;2024-03-08T16:13:27;35.20;;;24.60;;
37303;SDS011;23188;51.188;16.374;2024-03-08T16:17:29;29.30;;;18.30;;
37303;SDS011;23188;51.188;16.374;2024-03-08T16:21:30;36.20;;;25.70;;
37303;SDS011;23188;51.188;16.374;2024-03-08T16:25:35;35.20;;;24.50;;
37303;SDS011;23188;51.188;16.374;2024-03-08T16:29:37;38.60;;;23.50;;
37303;SDS011;23188;51.188;16.374;2024-03-08T16:33:40;37.80;;;25.80;;
37303;SDS011;23188;51.188;16.374;2024-03-08T16:37:42;31.70;;;24.60;;
37303;SDS011;23188;51.188;16.374;2024-03-08T16:41:44;38.80;;;26.20;;
37303;SDS011;23188;51.188;16.374;2024-03-08T16:45:49;31.20;;;23.20;;
37303;SDS011;23188;51.188;16.374;2024-03-08T16:49:56;34.10;;;24.20;;
37303;SDS011;23188;51.188;16.374;2024-03-08T16:53:59;41.70;;;28.30;;
37303;SDS011;23188;51.188;16.374;2024-03-08T16:58:03;41.10;;;26.60;;
37303;SDS011;23188;51.188;16.374;2024-03-08T17:02:10;46.10;;;30.70;;
37303;SDS011;23188;51.188;16.374;2024-03-08T17:06:11;42.00;;;27.80;;
37303;SDS011;23188;51.188;16.374;2024-03-08T17:10:16;42.40;;;27.20;;
37303;SDS011;23188;51.188;16.374;2024-03-08T17:14:21;38.90;;;28.10;;
37303;SDS011;23188;51.188;16.374;2024-03-08T17:18:23;41.10;;;28.90;;
37303;SDS011;23188;51.188;16.374;2024-03-08T17:22:27;39.40;;;28.40;;
37303;SDS011;23188;51.188;16.374;2024-03-08T17:26:30;44.50;;;29.90;;
37303;SDS011;23188;51.188;16.374;2024-03-08T17:30:32;53.50;;;34.00;;
37303;SDS011;23188;51.188;16.374;2024-03-08T17:34:35;44.70;;;30.90;;
37303;SDS011;23188;51.188;16.374;2024-03-08T17:38:37;68.90;;;38.80;;
37303;SDS011;23188;51.188;16.374;2024-03-08T17:42:58;55.40;;;36.70;;
37303;SDS011;23188;51.188;16.374;2024-03-08T17:47:07;48.60;;;30.20;;
37303;SDS011;23188;51.188;16.374;2024-03-08T17:51:09;48.60;;;32.00;;
37303;SDS011;23188;51.188;16.374;2024-03-08T17:55:14;58.10;;;36.20;;
37303;SDS011;23188;51.188;16.374;2024-03-08T17:59:16;84.00;;;53.10;;
37303;SDS011;23188;51.188;16.374;2024-03-08T18:03:18;61.90;;;36.30;;
37303;SDS011;23188;51.188;16.374;2024-03-08T18:07:21;55.40;;;33.60;;
37303;SDS011;23188;51.188;16.374;2024-03-08T18:11:23;65.40;;;38.30;;
37303;SDS011;23188;51.188;16.374;2024-03-08T18:15:26;61.20;;;40.10;;
37303;SDS011;23188;51.188;16.374;2024-03-08T18:19:28;62.40;;;40.80;;
37303;SDS011;23188;51.188;16.374;2024-03-08T18:23:29;65.70;;;41.30;;
37303;SDS011;23188;51.188;16.374;2024-03-08T18:27:31;64.10;;;41.10;;
37303;SDS011;23188;51.188;16.374;2024-03-08T18:31:33;73.60;;;45.00;;
37303;SDS011;23188;51.188;16.374;2024-03-08T18:35:36;77.50;;;42.10;;
37303;SDS011;23188;51.188;16.374;2024-03-08T18:39:39;68.10;;;42.90;;
37303;SDS011;23188;51.188;16.374;2024-03-08T18:43:41;65.80;;;42.60;;
37303;SDS011;23188;51.188;16.374;2024-03-08T18:47:44;77.80;;;44.60;;
37303;SDS011;23188;51.188;16.374;2024-03-08T18:51:50;74.30;;;48.40;;
37303;SDS011;23188;51.188;16.374;2024-03-08T18:55:55;82.20;;;48.80;;
37303;SDS011;23188;51.188;16.374;2024-03-08T18:59:57;77.30;;;48.70;;
37303;SDS011;23188;51.188;16.374;2024-03-08T19:03:59;75.70;;;48.70;;
37303;SDS011;23188;51.188;16.374;2024-03-08T19:08:01;70.90;;;42.80;;
37303;SDS011;23188;51.188;16.374;2024-03-08T19:12:09;82.00;;;47.10;;
37303;SDS011;23188;51.188;16.374;2024-03-08T19:16:14;93.00;;;55.00;;
37303;SDS011;23188;51.188;16.374;2024-03-08T19:20:18;100.50;;;51.80;;
37303;SDS011;23188;51.188;16.374;2024-03-08T19:24:25;122.40;;;62.30;;
37303;SDS011;23188;51.188;16.374;2024-03-08T19:28:27;104.60;;;61.20;;
37303;SDS011;23188;51.188;16.374;2024-03-08T19:32:29;85.60;;;49.80;;
37303;SDS011;23188;51.188;16.374;2024-03-08T19:36:31;85.90;;;50.80;;
37303;SDS011;23188;51.188;16.374;2024-03-08T19:40:33;72.80;;;47.90;;
37303;SDS011;23188;51.188;16.374;2024-03-08T19:44:36;73.80;;;45.30;;
37303;SDS011;23188;51.188;16.374;2024-03-08T19:48:39;74.80;;;46.20;;
37303;SDS011;23188;51.188;16.374;2024-03-08T19:52:47;79.00;;;50.90;;
37303;SDS011;23188;51.188;16.374;2024-03-08T19:56:51;80.40;;;52.30;;
37303;SDS011;23188;51.188;16.374;2024-03-08T20:00:54;87.80;;;49.70;;
37303;SDS011;23188;51.188;16.374;2024-03-08T20:04:57;76.90;;;45.30;;
37303;SDS011;23188;51.188;16.374;2024-03-08T20:09:03;83.70;;;50.30;;
37303;SDS011;23188;51.188;16.374;2024-03-08T20:13:05;79.30;;;45.90;;
37303;SDS011;23188;51.188;16.374;2024-03-08T20:17:10;75.90;;;51.40;;
37303;SDS011;23188;51.188;16.374;2024-03-08T20:21:12;81.50;;;52.00;;
37303;SDS011;23188;51.188;16.374;2024-03-08T20:25:17;71.30;;;46.30;;
37303;SDS011;23188;51.188;16.374;2024-03-08T20:29:22;75.70;;;46.80;;
37303;SDS011;23188;51.188;16.374;2024-03-08T20:33:24;81.60;;;48.20;;
37303;SDS011;23188;51.188;16.374;2024-03-08T20:37:26;85.70;;;54.00;;
37303;SDS011;23188;51.188;16.374;2024-03-08T20:41:28;82.20;;;52.90;;
37303;SDS011;23188;51.188;16.374;2024-03-08T20:45:33;91.00;;;58.60;;
37303;SDS011;23188;51.188;16.374;2024-03-08T20:49:35;107.80;;;58.30;;
37303;SDS011;23188;51.188;16.374;2024-03-08T20:53:37;104.10;;;55.30;;
37303;SDS011;23188;51.188;16.374;2024-03-08T20:57:39;89.70;;;54.00;;
37303;SDS011;23188;51.188;16.374;2024-03-08T21:01:50;88.10;;;51.30;;
37303;SDS011;23188;51.188;16.374;2024-03-08T21:05:53;86.10;;;53.20;;
37303;SDS011;23188;51.188;16.374;2024-03-08T21:09:55;93.70;;;59.10;;
37303;SDS011;23188;51.188;16.374;2024-03-08T21:13:57;97.00;;;57.30;;
37303;SDS011;23188;51.188;16.374;2024-03-08T21:17:59;100.80;;;58.70;;
37303;SDS011;23188;51.188;16.374;2024-03-08T21:22:01;90.30;;;59.70;;
37303;SDS011;23188;51.188;16.374;2024-03-08T21:26:03;101.50;;;59.60;;
37303;SDS011;23188;51.188;16.374;2024-03-08T21:30:10;98.80;;;58.70;;
37303;SDS011;23188;51.188;16.374;2024-03-08T21:34:24;94.20;;;57.60;;
37303;SDS011;23188;51.188;16.374;2024-03-08T21:38:27;101.30;;;62.00;;
37303;SDS011;23188;51.188;16.374;2024-03-08T21:42:28;94.50;;;54.80;;
37303;SDS011;23188;51.188;16.374;2024-03-08T21:46:30;89.20;;;59.30;;
37303;SDS011;23188;51.188;16.374;2024-03-08T21:50:33;95.40;;;60.30;;
37303;SDS011;23188;51.188;16.374;2024-03-08T21:54:35;96.40;;;59.50;;
37303;SDS011;23188;51.188;16.374;2024-03-08T21:58:38;95.00;;;58.40;;
37303;SDS011;23188;51.188;16.374;2024-03-08T22:02:42;110.80;;;65.90;;
37303;SDS011;23188;51.188;16.374;2024-03-08T22:06:48;100.20;;;62.00;;
37303;SDS011;23188;51.188;16.374;2024-03-08T22:10:51;98.50;;;59.30;;
37303;SDS011;23188;51.188;16.374;2024-03-08T22:14:53;105.80;;;63.40;;
37303;SDS011;23188;51.188;16.374;2024-03-08T22:18:55;96.80;;;59.90;;
37303;SDS011;23188;51.188;16.374;2024-03-08T22:22:57;96.30;;;63.00;;
37303;SDS011;23188;51.188;16.374;2024-03-08T22:26:59;96.60;;;61.40;;
37303;SDS011;23188;51.188;16.374;2024-03-08T22:31:02;108.80;;;65.60;;
37303;SDS011;23188;51.188;16.374;2024-03-08T22:35:07;99.60;;;59.70;;
37303;SDS011;23188;51.188;16.374;2024-03-08T22:39:11;93.30;;;58.00;;
37303;SDS011;23188;51.188;16.374;2024-03-08T22:43:13;96.40;;;57.30;;
37303;SDS011;23188;51.188;16.374;2024-03-08T22:47:15;115.70;;;62.90;;
37303;SDS011;23188;51.188;16.374;2024-03-08T22:51:17;101.50;;;58.70;;
37303;SDS011;23188;51.188;16.374;2024-03-08T22:55:26;106.10;;;63.80;;
37303;SDS011;23188;51.188;16.374;2024-03-08T22:59:28;111.90;;;64.70;;
37303;SDS011;23188;51.188;16.374;2024-03-08T23:03:30;96.10;;;60.90;;
37303;SDS011;23188;51.188;16.374;2024-03-08T23:07:36;113.40;;;70.00;;
37303;SDS011;23188;51.188;16.374;2024-03-08T23:11:40;119.60;;;68.20;;
37303;SDS011;23188;51.188;16.374;2024-03-08T23:15:44;112.70;;;69.90;;
37303;SDS011;23188;51.188;16.374;2024-03-08T23:19:46;114.30;;;71.00;;
37303;SDS011;23188;51.188;16.374;2024-03-08T23:23:48;115.00;;;72.60;;
37303;SDS011;23188;51.188;16.374;2024-03-08T23:31:54;108.40;;;66.30;;
37303;SDS011;23188;51.188;16.374;2024-03-08T23:35:56;127.60;;;70.80;;